Rockham, South Dakota
Current Conditions -  °F | °C
As of 11:53 PM on Friday 28 Nov 2014 (Local Time) from KABR Reporting Station
Clear Clear  
Wind Chill: 21°   Ceiling: Unl
Heat Index: 21°   Visibility: 10mi
Dew Point: 17°   Wind: 0mph
Humidity: 85%   Direction: NA
Pressure: 29.5"   Gusts: NA
Location:  44.9°N, 98.82°W
Report Text: KABR 290553Z AUTO 00000KT 10SM CLR M06/M08 A2950 RMK AO2 SLP010 T10611083 11061 21100 410441128 56022
Loading
Personal Weather Stations






























Interactive Weather Map New forecast layout! Learn more

10-Day Weather Forecast

Advertisements
Track Severe Weather on mobile